Huvudsida
METAR-TAF:

METAR-TAF

Flygplatser :

Vardø flygplats. Svartnes

Vardø, Norge

latitud: 70-21N, longitud: 031-03E, höjd: 12 m

Aktuellt väderrapport

Denna rapport gjordes för 3 timmar och 12 minuter sedan, klockan 09:50 UTC
Vind 7 kt från syd/sydväst
Temperatur 4°C
Fuktighet 75%
Tryck 984 hPa
Sikt 10 km eller mer
Inga moln under 1 500 m eller inga cumulonimbus

METAR: ENSS 220950Z 21007KT CAVOK 04/00 Q0984 RMK WIND 500FT 19007KT

Tid: 15:02 (13:02 UTC)


TAF: saknas

Aktuella väderrapporter och prognoser från 4000 flygplatser (METAR- och TAF-rapporter).

De tillgängliga stationerna syns som gula och röda prickar på kartan.

För musen över prickarna för att se namnen på stationerna.

Klicka sedan för att få väderrapporter och prognoser.

För att ändra kartan: Klicka på de gröna knapparna med ett svart kors på för att zooma in; den gröna knappen med ett streck på för att zooma ut; eller på de gröna pilarna för angränsande kartor.


METAR-TAF: